createdAt,value
2024-04-23T00:00:44.347Z,87.45
2024-04-23T00:01:44.373Z,87.97
2024-04-23T00:02:44.407Z,89.02
2024-04-23T00:03:44.322Z,89.69
2024-04-23T00:04:44.337Z,91.05
2024-04-23T00:05:44.278Z,90.64
2024-04-23T00:06:44.267Z,90.91
2024-04-23T00:07:44.307Z,89.69
2024-04-23T00:08:44.261Z,88.92
2024-04-23T00:09:44.261Z,88.85
2024-04-23T00:10:44.270Z,88.07
2024-04-23T00:11:44.254Z,88.22
2024-04-23T00:12:44.244Z,87.38
2024-04-23T00:13:44.227Z,87.70
2024-04-23T00:14:44.198Z,88.01
2024-04-23T00:15:44.181Z,87.59
2024-04-23T00:16:44.196Z,87.49
2024-04-23T00:17:44.294Z,88.22
2024-04-23T00:18:44.201Z,87.97
2024-04-23T00:19:44.198Z,87.76
2024-04-23T00:20:44.143Z,88.01
2024-04-23T00:21:44.130Z,89.59
2024-04-23T00:22:44.185Z,89.90
2024-04-23T00:23:44.111Z,90.53
2024-04-23T00:24:44.082Z,90.74
2024-04-23T00:25:44.097Z,90.42
2024-04-23T00:26:44.075Z,90.22
2024-04-23T00:27:44.051Z,89.79
2024-04-23T00:28:44.084Z,89.06
2024-04-23T00:29:44.030Z,89.73
2024-04-23T00:30:44.048Z,89.37
2024-04-23T00:31:44.063Z,89.17
2024-04-23T00:32:44.052Z,88.47
2024-04-23T00:33:43.999Z,88.16
2024-04-23T00:34:44.032Z,88.16
2024-04-23T00:35:43.980Z,88.26
2024-04-23T00:36:43.970Z,88.43
2024-04-23T00:37:43.973Z,88.32
2024-04-23T00:38:43.998Z,88.22
2024-04-23T00:39:43.939Z,88.05
2024-04-23T00:40:44.046Z,87.84
2024-04-23T00:41:43.911Z,87.38
2024-04-23T00:42:43.911Z,87.91
2024-04-23T00:43:43.954Z,89.17
2024-04-23T00:44:43.899Z,90.95
2024-04-23T00:45:43.908Z,91.37
2024-04-23T00:46:43.917Z,89.79
2024-04-23T00:47:43.950Z,88.85
2024-04-23T00:48:43.853Z,88.54
2024-04-23T00:49:43.939Z,88.22
2024-04-23T00:50:43.816Z,87.80
2024-04-23T00:51:43.804Z,87.95
2024-04-23T00:52:43.803Z,88.16
2024-04-23T00:53:43.832Z,88.01
2024-04-23T00:54:43.793Z,87.84
2024-04-23T00:55:43.823Z,88.47
2024-04-23T00:56:43.760Z,88.47
2024-04-23T00:57:43.750Z,88.47
2024-04-23T00:58:44.000Z,87.84
2024-04-23T00:59:43.747Z,87.74
2024-04-23T01:00:43.735Z,88.47
2024-04-23T01:01:43.755Z,88.05
2024-04-23T01:02:43.756Z,89.21
2024-04-23T01:03:43.743Z,90.99
2024-04-23T01:04:43.693Z,90.67
2024-04-23T01:05:43.677Z,90.36
2024-04-23T01:06:43.650Z,89.42
2024-04-23T01:07:43.677Z,88.68
2024-04-23T01:08:43.653Z,88.05
2024-04-23T01:09:43.641Z,87.84
2024-04-23T01:10:43.662Z,87.52
2024-04-23T01:11:43.631Z,88.05
2024-04-23T01:12:43.594Z,87.52
2024-04-23T01:13:43.634Z,88.20
2024-04-23T01:14:43.581Z,89.25
2024-04-23T01:15:43.579Z,89.21
2024-04-23T01:16:43.582Z,88.72
2024-04-23T01:17:43.616Z,88.30
2024-04-23T01:18:43.547Z,88.09
2024-04-23T01:19:43.562Z,87.88
2024-04-23T01:20:43.515Z,88.09
2024-04-23T01:21:43.508Z,87.88
2024-04-23T01:22:43.537Z,87.92
2024-04-23T01:23:43.500Z,88.51
2024-04-23T01:24:43.472Z,89.29
2024-04-23T01:25:43.526Z,90.51
2024-04-23T01:26:43.457Z,91.49
2024-04-23T01:27:43.452Z,91.07
2024-04-23T01:28:43.489Z,90.40
2024-04-23T01:29:43.433Z,90.40
2024-04-23T01:30:43.408Z,89.87
2024-04-23T01:31:43.490Z,89.77
2024-04-23T01:32:43.470Z,89.56
2024-04-23T01:33:43.489Z,89.18
2024-04-23T01:34:43.417Z,89.50
2024-04-23T01:35:43.372Z,89.18
2024-04-23T01:36:43.367Z,88.66
2024-04-23T01:37:43.367Z,88.45
2024-04-23T01:38:43.344Z,88.66
2024-04-23T01:39:43.337Z,88.45
2024-04-23T01:40:43.345Z,88.76
2024-04-23T01:41:43.318Z,88.66
2024-04-23T01:42:43.301Z,88.76
2024-04-23T01:43:43.312Z,88.66
2024-04-23T01:44:43.285Z,89.43
2024-04-23T01:45:43.266Z,89.50
2024-04-23T01:46:43.301Z,89.71
2024-04-23T01:47:43.314Z,89.71
2024-04-23T01:48:43.241Z,89.50
2024-04-23T01:49:43.241Z,89.71
2024-04-23T01:50:43.237Z,89.29
2024-04-23T01:51:43.229Z,89.81
2024-04-23T01:52:43.236Z,89.54
2024-04-23T01:53:43.184Z,90.27
2024-04-23T01:54:43.174Z,90.34
2024-04-23T01:55:43.230Z,90.38
2024-04-23T01:56:43.161Z,90.06
2024-04-23T01:57:43.144Z,89.81
2024-04-23T01:58:43.201Z,89.32
2024-04-23T01:59:43.121Z,89.81
2024-04-23T02:00:43.131Z,88.76
2024-04-23T02:01:43.190Z,88.28
2024-04-23T02:02:43.129Z,88.24
2024-04-23T02:03:43.151Z,88.49
2024-04-23T02:04:43.098Z,88.38
2024-04-23T02:05:43.074Z,88.17
2024-04-23T02:06:43.057Z,88.70
2024-04-23T02:07:43.085Z,88.70
2024-04-23T02:08:43.026Z,88.70
2024-04-23T02:09:43.037Z,88.91
2024-04-23T02:10:43.077Z,88.28
2024-04-23T02:11:43.079Z,88.17
2024-04-23T02:12:42.995Z,89.64
2024-04-23T02:13:43.027Z,89.96
2024-04-23T02:14:42.985Z,89.96
2024-04-23T02:15:42.978Z,89.64
2024-04-23T02:16:42.950Z,89.54
2024-04-23T02:17:43.058Z,88.91
2024-04-23T02:18:42.974Z,89.75
2024-04-23T02:19:42.976Z,89.96
2024-04-23T02:20:42.922Z,89.54
2024-04-23T02:21:42.902Z,90.63
2024-04-23T02:22:42.946Z,90.59
2024-04-23T02:23:42.890Z,91.33
2024-04-23T02:24:42.888Z,91.43
2024-04-23T02:25:42.875Z,90.69
2024-04-23T02:26:42.864Z,91.53
2024-04-23T02:27:42.856Z,91.22
2024-04-23T02:28:42.866Z,90.69
2024-04-23T02:29:42.853Z,90.17
2024-04-23T02:30:42.820Z,89.96
2024-04-23T02:31:42.847Z,89.58
2024-04-23T02:32:42.908Z,89.69
2024-04-23T02:33:43.003Z,89.58
2024-04-23T02:34:42.840Z,89.37
2024-04-23T02:35:42.761Z,89.37
2024-04-23T02:36:42.756Z,88.84
2024-04-23T02:37:42.806Z,88.91
2024-04-23T02:38:42.785Z,89.79
2024-04-23T02:39:42.743Z,90.31
2024-04-23T02:40:42.742Z,90.42
2024-04-23T02:41:42.710Z,91.78
2024-04-23T02:42:42.707Z,90.73
2024-04-23T02:43:42.721Z,90.73
2024-04-23T02:44:42.678Z,89.79
2024-04-23T02:45:42.668Z,89.58
2024-04-23T02:46:42.696Z,89.69
2024-04-23T02:47:42.754Z,89.69
2024-04-23T02:48:42.648Z,89.37
2024-04-23T02:49:42.698Z,89.16
2024-04-23T02:50:42.618Z,89.69
2024-04-23T02:51:42.613Z,89.79
2024-04-23T02:52:42.640Z,89.47
2024-04-23T02:53:42.591Z,90.94
2024-04-23T02:54:42.583Z,91.68
2024-04-23T02:55:42.608Z,91.72
2024-04-23T02:56:42.572Z,90.94
2024-04-23T02:57:42.570Z,91.26
2024-04-23T02:58:42.555Z,90.94
2024-04-23T02:59:42.533Z,89.69
2024-04-23T03:00:42.535Z,89.26
2024-04-23T03:01:42.576Z,89.69
2024-04-23T03:02:42.613Z,89.89
2024-04-23T03:03:42.571Z,88.84
2024-04-23T03:04:42.519Z,88.35
2024-04-23T03:05:42.484Z,88.25
2024-04-23T03:06:42.474Z,88.25
2024-04-23T03:07:42.474Z,89.51
2024-04-23T03:08:42.448Z,91.09
2024-04-23T03:09:42.435Z,90.67
2024-04-23T03:10:42.538Z,91.05
2024-04-23T03:11:42.503Z,90.78
2024-04-23T03:12:42.414Z,90.36
2024-04-23T03:13:42.422Z,89.83
2024-04-23T03:14:42.381Z,89.09
2024-04-23T03:15:42.390Z,89.41
2024-04-23T03:16:42.401Z,89.72
2024-04-23T03:17:42.428Z,89.41
2024-04-23T03:18:42.407Z,88.92
2024-04-23T03:19:42.389Z,89.62
2024-04-23T03:20:42.344Z,88.89
2024-04-23T03:21:42.318Z,89.30
2024-04-23T03:22:42.325Z,89.98
2024-04-23T03:23:42.295Z,89.45
2024-04-23T03:24:42.312Z,89.72
2024-04-23T03:25:42.353Z,88.92
2024-04-23T03:26:42.279Z,89.30
2024-04-23T03:27:42.255Z,89.41
2024-04-23T03:28:42.298Z,89.09
2024-04-23T03:29:42.247Z,88.92
2024-04-23T03:30:42.236Z,88.29
2024-04-23T03:31:42.290Z,88.29
2024-04-23T03:32:42.215Z,89.45
2024-04-23T03:33:42.190Z,89.24
2024-04-23T03:34:42.226Z,89.03
2024-04-23T03:35:42.175Z,88.29
2024-04-23T03:36:42.160Z,88.29
2024-04-23T03:37:42.210Z,88.29
2024-04-23T03:38:42.144Z,88.29
2024-04-23T03:39:42.158Z,88.82
2024-04-23T03:40:42.136Z,88.82
2024-04-23T03:41:42.108Z,88.82
2024-04-23T03:42:42.107Z,88.60
2024-04-23T03:43:42.125Z,88.40
2024-04-23T03:44:44.833Z,88.29
2024-04-23T03:45:42.080Z,88.50
2024-04-23T03:46:42.077Z,88.50
2024-04-23T03:47:42.148Z,88.29
2024-04-23T03:48:42.049Z,88.35
2024-04-23T03:49:42.079Z,88.50
2024-04-23T03:50:42.062Z,89.24
2024-04-23T03:51:42.005Z,89.34
2024-04-23T03:52:42.062Z,90.82
2024-04-23T03:53:42.101Z,90.86
2024-04-23T03:54:42.232Z,90.82
2024-04-23T03:55:42.115Z,91.39
2024-04-23T03:56:41.993Z,91.35
2024-04-23T03:57:42.070Z,90.55
2024-04-23T03:58:42.023Z,90.50
2024-04-23T03:59:41.934Z,90.29
2024-04-23T04:00:41.950Z,89.66
2024-04-23T04:01:42.016Z,89.45
2024-04-23T04:02:42.000Z,89.87
2024-04-23T04:03:41.936Z,88.92
2024-04-23T04:04:41.912Z,88.65
2024-04-23T04:05:41.872Z,88.44
2024-04-23T04:06:41.894Z,88.54
2024-04-23T04:07:41.875Z,88.54
2024-04-23T04:08:41.854Z,88.50
2024-04-23T04:09:41.830Z,88.65
2024-04-23T04:10:41.868Z,88.65
2024-04-23T04:11:41.945Z,88.75
2024-04-23T04:12:41.822Z,88.65
2024-04-23T04:13:42.115Z,88.75
2024-04-23T04:14:41.783Z,88.54
2024-04-23T04:15:41.769Z,88.65
2024-04-23T04:16:41.866Z,88.65
2024-04-23T04:17:42.262Z,87.98
2024-04-23T04:18:41.787Z,88.12
2024-04-23T04:19:41.759Z,88.12
2024-04-23T04:20:41.729Z,88.12
2024-04-23T04:21:41.726Z,88.60
2024-04-23T04:22:41.757Z,87.98
2024-04-23T04:23:41.702Z,88.29
2024-04-23T04:24:41.699Z,88.40
2024-04-23T04:25:41.688Z,88.44
2024-04-23T04:26:41.714Z,88.50
2024-04-23T04:27:41.670Z,88.82
2024-04-23T04:28:41.657Z,89.98
2024-04-23T04:29:41.636Z,91.39
2024-04-23T04:30:41.628Z,90.65
2024-04-23T04:31:41.702Z,91.13
2024-04-23T04:32:41.717Z,90.71
2024-04-23T21:41:47.883Z,83.55
2024-04-23T21:42:47.868Z,83.34
2024-04-23T21:43:47.877Z,82.79
2024-04-23T21:44:47.845Z,82.10
2024-04-23T21:45:47.860Z,81.48
2024-04-23T21:46:47.843Z,81.79
2024-04-23T21:47:47.928Z,81.44
2024-04-23T21:48:47.889Z,80.92
2024-04-23T21:49:47.832Z,80.54
2024-04-23T21:50:47.791Z,80.75
2024-04-23T21:52:09.603Z,81.06
2024-04-23T21:52:48.769Z,83.03
2024-04-23T21:53:47.763Z,84.07
2024-04-23T21:54:47.753Z,84.42
2024-04-23T21:55:47.746Z,83.55
2024-04-23T21:56:47.713Z,83.24
2024-04-23T21:57:47.724Z,82.62
2024-04-23T21:58:47.731Z,83.24
2024-04-23T21:59:47.699Z,84.17
2024-04-23T22:00:47.731Z,84.59
2024-04-23T22:01:47.729Z,84.83
2024-04-23T22:02:47.763Z,83.48
2024-04-23T22:03:47.781Z,83.17
2024-04-23T22:04:47.667Z,83.32
2024-04-23T22:05:47.626Z,84.36
2024-04-23T22:06:47.614Z,83.84
2024-04-23T22:07:47.648Z,82.76
2024-04-23T22:08:48.721Z,82.86
2024-04-23T22:09:48.711Z,82.07
2024-04-23T22:10:48.751Z,81.82
2024-04-23T22:11:48.807Z,83.80
2024-04-23T22:12:48.688Z,84.98
2024-04-23T22:13:48.677Z,84.98
2024-04-23T22:14:48.655Z,84.15
2024-04-23T22:15:48.640Z,84.15
2024-04-23T22:16:48.711Z,84.36
2024-04-23T22:17:48.780Z,83.17
2024-04-23T22:18:48.710Z,82.14
2024-04-23T22:19:48.651Z,82.97
2024-04-23T22:20:48.593Z,82.24
2024-04-23T22:21:48.586Z,81.93
2024-04-23T22:22:48.609Z,81.72
2024-04-23T22:23:48.562Z,81.82
2024-04-23T22:24:48.553Z,82.03
2024-04-23T22:25:48.559Z,81.93
2024-04-23T22:26:48.530Z,81.82
2024-04-23T22:27:48.537Z,82.97
2024-04-23T22:28:48.563Z,82.97
2024-04-23T22:29:48.501Z,82.97
2024-04-23T22:30:48.498Z,83.07
2024-04-23T22:31:48.491Z,82.86
2024-04-23T22:32:49.511Z,81.93
2024-04-23T22:33:48.525Z,83.17
2024-04-23T22:34:48.493Z,81.41
2024-04-23T22:35:48.448Z,81.51
2024-04-23T22:36:48.442Z,82.55
2024-04-23T22:37:48.435Z,84.31
2024-04-23T22:38:49.414Z,84.00
2024-04-23T22:39:48.405Z,84.88
2024-04-23T22:40:48.438Z,85.66
2024-04-23T22:41:48.406Z,86.02
2024-04-23T22:42:48.369Z,85.66
2024-04-23T22:43:48.382Z,85.04
2024-04-23T22:44:48.349Z,85.08
2024-04-23T22:45:48.344Z,85.29
2024-04-23T22:46:48.349Z,85.81
2024-04-23T22:47:48.384Z,85.95
2024-04-23T22:48:48.442Z,85.74
2024-04-23T22:49:48.349Z,86.16
2024-04-23T22:50:48.305Z,86.16
2024-04-23T22:51:48.323Z,86.16
2024-04-23T22:52:48.296Z,86.05
2024-04-23T22:53:48.260Z,85.43
2024-04-23T22:54:48.246Z,86.05
2024-04-23T22:55:48.265Z,86.05
2024-04-23T22:56:48.241Z,86.05
2024-04-23T22:57:48.216Z,85.64
2024-04-23T22:58:48.220Z,85.47
2024-04-23T22:59:48.203Z,85.74
2024-04-23T23:00:48.191Z,85.95
2024-04-23T23:01:48.188Z,85.43
2024-04-23T23:02:48.286Z,84.70
2024-04-23T23:03:48.166Z,84.46
2024-04-23T23:04:48.185Z,84.50
2024-04-23T23:05:48.137Z,83.67
2024-04-23T23:06:48.154Z,83.94
2024-04-23T23:07:48.147Z,83.73
2024-04-23T23:08:48.110Z,84.88
2024-04-23T23:09:48.103Z,85.02
2024-04-23T23:10:48.189Z,85.53
2024-04-23T23:11:48.194Z,85.43
2024-04-23T23:12:48.061Z,85.53
2024-04-23T23:13:48.067Z,85.95
2024-04-23T23:14:48.050Z,85.74
2024-04-23T23:15:48.039Z,86.05
2024-04-23T23:16:48.086Z,85.78
2024-04-23T23:17:48.021Z,85.22
2024-04-23T23:18:47.996Z,85.36
2024-04-23T23:19:48.034Z,85.85
2024-04-23T23:20:47.991Z,85.68
2024-04-23T23:21:47.964Z,85.74
2024-04-23T23:22:50.093Z,86.57
2024-04-23T23:23:48.959Z,86.93
2024-04-23T23:24:47.980Z,86.88
2024-04-23T23:25:47.991Z,86.05
2024-04-23T23:26:47.920Z,86.26
2024-04-23T23:27:47.912Z,86.26
2024-04-23T23:28:47.919Z,86.05
2024-04-23T23:29:47.898Z,85.53
2024-04-23T23:30:47.876Z,85.43
2024-04-23T23:31:47.889Z,85.33
2024-04-23T23:32:47.977Z,85.16
2024-04-23T23:33:47.905Z,84.50
2024-04-23T23:34:47.883Z,85.12
2024-04-23T23:35:47.828Z,85.22
2024-04-23T23:36:47.818Z,84.91
2024-04-23T23:37:47.839Z,83.94
2024-04-23T23:38:47.816Z,84.36
2024-04-23T23:39:48.782Z,84.50
2024-04-23T23:40:47.836Z,84.19
2024-04-23T23:41:47.763Z,83.98
2024-04-23T23:42:47.772Z,84.91
2024-04-23T23:43:47.778Z,85.85
2024-04-23T23:44:47.733Z,85.43
2024-04-23T23:45:47.720Z,85.02
2024-04-23T23:46:47.794Z,85.12
2024-04-23T23:47:47.840Z,85.02
2024-04-23T23:48:47.733Z,84.19
2024-04-23T23:49:47.733Z,83.56
2024-04-23T23:50:47.687Z,83.67
2024-04-23T23:51:47.662Z,83.56
2024-04-23T23:52:47.685Z,83.25
2024-04-23T23:53:47.651Z,83.56
2024-04-23T23:54:47.654Z,83.46
2024-04-23T23:55:47.644Z,83.46
2024-04-23T23:56:47.617Z,82.84
2024-04-23T23:57:47.611Z,82.84
2024-04-23T23:58:47.631Z,83.15
2024-04-23T23:59:47.570Z,82.21
